Hoffman, Minnesota
Current Conditions -  °F | °C
As of 12:34 PM on Saturday 20 Dec 2014 (Local Time) from KY63 Reporting Station
Haze Haze  
Wind Chill: 19°   Ceiling: 700
Heat Index: 30°   Visibility: 5mi
Dew Point: 28°   Wind: 15mph
Humidity: 93%   Direction: 180°S
Pressure: 30.01"   Gusts: NA
Location:  45.83°N, 95.79°W
Report Text: KY63 201834Z AUTO 18013KT 5SM BR OVC007 M01/M02 A3001 RMK AO2 T10101020
Loading
Personal Weather Stations






























Interactive Weather Map New forecast layout! Learn more

10-Day Weather Forecast

Advertisements
Track Severe Weather on mobile